Time;durP1;ratioP1;P1;durP2;ratioP2;P2;SDS_P1;SDS_P2;PMS_P1;PMS_P2;Temp;Humidity;BMP_temperature;BMP_pressure;BME280_temperature;BME280_humidity;BME280_pressure;Samples;Min_cycle;Max_cycle;Signal;HPM_P1;HPM_P2
2021/08/30 00:00:00;;;;;;;13.90;12.10;;;24.40;52.60;;;;;;4334209;61;21496;-25
2021/08/30 00:05:06;;;;;;;13.07;11.68;;;24.40;52.50;;;;;;4308719;61;21102;-25
2021/08/30 00:10:09;;;;;;;14.53;12.60;;;24.40;52.50;;;;;;4296804;64;21136;-34
2021/08/30 00:15:12;;;;;;;15.20;12.73;;;24.40;52.50;;;;;;4304036;60;21065;-33
2021/08/30 00:20:16;;;;;;;16.55;13.38;;;24.40;52.60;;;;;;4304697;60;21116;-32
2021/08/30 00:25:16;;;;;;;15.73;12.80;;;24.40;52.60;;;;;;4301613;60;21115;-33
2021/08/30 00:30:20;;;;;;;15.32;13.05;;;24.30;52.40;;;;;;4341683;61;21057;-28
2021/08/30 00:35:21;;;;;;;16.23;13.05;;;24.30;52.50;;;;;;4308693;61;21571;-33
2021/08/30 00:40:22;;;;;;;15.38;12.50;;;24.30;52.50;;;;;;4299847;61;21073;-34
2021/08/30 00:45:23;;;;;;;16.10;13.13;;;24.30;52.50;;;;;;4295731;62;21539;-33
2021/08/30 00:50:24;;;;;;;15.52;12.95;;;24.30;52.50;;;;;;4327082;61;21101;-34
2021/08/30 00:55:24;;;;;;;15.90;13.27;;;24.30;52.50;;;;;;4296951;61;21101;-32
2021/08/30 01:00:25;;;;;;;15.57;13.32;;;24.30;52.50;;;;;;4338361;61;21132;-35
2021/08/30 01:05:26;;;;;;;16.95;13.55;;;24.30;52.50;;;;;;4300417;61;21583;-32
2021/08/30 01:10:39;;;;;;;16.52;13.95;;;24.30;52.50;;;;;;4299661;61;21075;-29
2021/08/30 01:15:45;;;;;;;15.88;13.52;;;24.30;52.50;;;;;;4304250;60;21549;-33
2021/08/30 01:27:36;;;;;;;19.17;13.95;;;24.30;52.40;;;;;;4303955;60;21093;-34
2021/08/30 01:33:04;;;;;;;19.62;14.20;;;24.30;52.50;;;;;;4301162;60;21128;-34
2021/08/30 01:38:07;;;;;;;18.83;14.80;;;24.30;52.40;;;;;;4315836;60;21678;-33
2021/08/30 01:43:10;;;;;;;19.30;14.38;;;24.30;52.40;;;;;;4304511;60;21711;-32
2021/08/30 01:48:11;;;;;;;19.70;14.90;;;24.30;52.40;;;;;;4307980;61;21077;-34
2021/08/30 01:53:12;;;;;;;17.83;14.68;;;24.30;52.40;;;;;;4310642;61;21097;-33
2021/08/30 02:04:02;;;;;;;16.48;14.23;;;24.30;52.40;;;;;;4339970;60;21073;-33
2021/08/30 02:09:04;;;;;;;17.70;14.13;;;24.30;52.40;;;;;;4328973;60;21053;-34
2021/08/30 02:14:07;;;;;;;17.50;14.43;;;24.30;52.40;;;;;;4323273;60;21118;-33
2021/08/30 02:19:38;;;;;;;19.98;14.50;;;24.30;52.40;;;;;;4296129;61;21579;-33
2021/08/30 02:24:47;;;;;;;21.02;15.40;;;24.30;52.40;;;;;;4337515;60;21029;-34
2021/08/30 02:30:04;;;;;;;19.08;14.65;;;24.30;52.40;;;;;;4303703;60;21053;-34
2021/08/30 02:35:07;;;;;;;19.45;15.23;;;24.30;52.50;;;;;;4310899;60;21106;-33
2021/08/30 02:40:11;;;;;;;21.98;15.35;;;24.30;52.40;;;;;;4333438;60;21249;-33
2021/08/30 02:45:13;;;;;;;21.12;16.12;;;24.30;52.40;;;;;;4305514;60;21053;-31
2021/08/30 02:50:15;;;;;;;19.83;15.00;;;24.20;52.30;;;;;;4316019;60;21655;-33
2021/08/30 02:55:16;;;;;;;20.25;15.10;;;24.30;52.40;;;;;;4305516;61;21608;-34
2021/08/30 03:00:18;;;;;;;21.35;15.57;;;24.30;52.40;;;;;;4300880;61;21153;-27
2021/08/30 03:05:21;;;;;;;20.05;15.45;;;24.30;52.40;;;;;;4320661;60;21041;-33
2021/08/30 03:10:22;;;;;;;20.08;15.10;;;24.20;52.30;;;;;;4299409;60;21547;-35
2021/08/30 03:15:24;;;;;;;20.98;16.10;;;24.20;52.30;;;;;;4305037;60;21331;-35
2021/08/30 03:20:28;;;;;;;22.15;16.40;;;24.20;52.30;;;;;;4298592;60;21060;-34
2021/08/30 03:25:34;;;;;;;21.35;15.75;;;24.20;52.30;;;;;;4316178;60;21053;-28
2021/08/30 03:30:37;;;;;;;24.10;16.27;;;24.20;52.30;;;;;;4328833;60;21214;-34
2021/08/30 03:35:38;;;;;;;23.52;16.08;;;24.20;52.30;;;;;;4306897;60;21165;-33
2021/08/30 03:40:42;;;;;;;22.30;16.08;;;24.20;52.30;;;;;;4369487;60;21073;-33
2021/08/30 03:45:43;;;;;;;21.75;15.85;;;24.20;52.30;;;;;;4335364;60;21106;-29
2021/08/30 03:50:45;;;;;;;23.85;16.62;;;24.20;52.30;;;;;;4302369;60;21065;-33
2021/08/30 03:55:47;;;;;;;22.60;16.73;;;24.20;52.30;;;;;;4295585;60;21048;-34
2021/08/30 04:00:48;;;;;;;25.30;17.33;;;24.20;52.30;;;;;;4295794;65;21621;-31
2021/08/30 04:05:50;;;;;;;26.83;17.50;;;24.20;52.30;;;;;;4321133;60;21121;-35
2021/08/30 04:10:51;;;;;;;24.63;17.55;;;24.20;52.30;;;;;;4326766;60;21543;-36
2021/08/30 04:15:52;;;;;;;25.05;16.90;;;24.20;52.30;;;;;;4317908;61;21112;-33
2021/08/30 04:20:52;;;;;;;27.10;17.77;;;24.20;52.20;;;;;;4301106;61;21060;-34
2021/08/30 04:25:53;;;;;;;27.13;17.98;;;24.20;52.20;;;;;;4307617;61;21554;-33
2021/08/30 04:30:54;;;;;;;29.00;18.62;;;24.20;52.90;;;;;;4296578;61;21064;-32
2021/08/30 04:35:55;;;;;;;28.52;18.75;;;24.20;52.20;;;;;;4310692;61;21563;-30
2021/08/30 04:40:56;;;;;;;32.63;19.25;;;24.20;52.30;;;;;;4305795;61;21182;-34
2021/08/30 04:45:57;;;;;;;31.42;19.10;;;24.20;52.30;;;;;;4295955;65;21068;-32
2021/08/30 04:50:58;;;;;;;29.05;17.92;;;24.20;52.30;;;;;;4302411;61;21550;-34
2021/08/30 04:55:59;;;;;;;29.02;18.33;;;24.10;52.30;;;;;;4322916;60;21072;-33
2021/08/30 05:01:00;;;;;;;28.92;18.08;;;24.20;52.30;;;;;;4328068;61;21081;-35
2021/08/30 05:06:01;;;;;;;29.90;18.92;;;24.10;52.20;;;;;;4296289;65;21535;-34
2021/08/30 05:11:02;;;;;;;32.45;19.75;;;24.10;52.20;;;;;;4321588;60;21053;-30
2021/08/30 05:16:03;;;;;;;31.37;19.33;;;24.20;52.30;;;;;;4298205;61;21073;-30
2021/08/30 05:21:04;;;;;;;30.17;18.75;;;24.10;52.20;;;;;;4323700;60;21073;-30
2021/08/30 05:26:04;;;;;;;32.03;19.77;;;24.10;52.20;;;;;;4296285;61;21097;-31
2021/08/30 05:31:14;;;;;;;34.67;19.80;;;24.10;52.20;;;;;;4298750;61;21654;-32
2021/08/30 05:36:18;;;;;;;32.92;20.40;;;24.10;52.20;;;;;;4363822;61;21073;-30
2021/08/30 05:41:19;;;;;;;31.98;20.08;;;24.10;52.20;;;;;;4296860;65;21160;-31
2021/08/30 05:46:19;;;;;;;33.35;19.67;;;24.10;52.10;;;;;;4316371;61;21789;-32
2021/08/30 05:51:20;;;;;;;30.80;19.90;;;24.10;52.20;;;;;;4311504;61;21076;-33
2021/08/30 05:56:21;;;;;;;33.55;20.33;;;24.10;52.00;;;;;;4307042;61;21094;-32
2021/08/30 06:01:22;;;;;;;35.28;20.37;;;24.10;52.00;;;;;;4298410;61;21513;-34
2021/08/30 06:06:23;;;;;;;34.80;21.35;;;24.10;52.10;;;;;;4306276;61;21057;-32
2021/08/30 06:11:24;;;;;;;37.55;21.48;;;24.10;52.00;;;;;;4316599;61;21544;-35
2021/08/30 06:16:24;;;;;;;35.58;21.12;;;24.10;52.00;;;;;;4306268;61;21112;-33
2021/08/30 06:21:25;;;;;;;35.20;20.98;;;24.10;52.00;;;;;;4303116;61;21141;-30
2021/08/30 06:26:26;;;;;;;38.47;22.05;;;24.10;52.00;;;;;;4329426;61;21502;-32
2021/08/30 06:31:27;;;;;;;36.92;22.73;;;24.10;51.90;;;;;;4313450;61;21116;-29
2021/08/30 06:36:28;;;;;;;37.33;22.48;;;24.10;51.90;;;;;;4316869;61;21209;-28
2021/08/30 06:41:28;;;;;;;39.00;22.62;;;24.10;52.20;;;;;;4302517;61;21077;-32
2021/08/30 06:46:29;;;;;;;38.20;22.70;;;24.10;51.90;;;;;;4308173;61;21113;-31
2021/08/30 06:51:30;;;;;;;33.75;22.33;;;24.10;51.90;;;;;;4322624;61;21531;-30
2021/08/30 06:56:31;;;;;;;40.67;23.60;;;24.10;51.90;;;;;;4302585;61;21068;-30
2021/08/30 07:01:34;;;;;;;34.00;21.45;;;24.10;51.90;;;;;;4309144;61;21495;-28
2021/08/30 07:06:36;;;;;;;37.90;22.77;;;24.10;51.90;;;;;;4294959;65;21197;-32
2021/08/30 07:11:37;;;;;;;37.58;23.00;;;24.10;51.80;;;;;;4316610;60;21065;-30
2021/08/30 07:16:37;;;;;;;36.63;22.98;;;24.10;52.10;;;;;;4322408;60;21056;-37
2021/08/30 07:21:38;;;;;;;37.95;23.35;;;24.10;52.10;;;;;;4299409;61;21553;-30
2021/08/30 07:26:39;;;;;;;37.67;23.05;;;24.10;52.30;;;;;;4308540;61;21077;-36
2021/08/30 07:31:40;;;;;;;39.15;23.27;;;24.10;52.50;;;;;;4295325;65;21231;-31
2021/08/30 07:36:41;;;;;;;34.70;22.67;;;24.10;52.60;;;;;;4313270;61;21081;-31
2021/08/30 07:41:42;;;;;;;35.05;23.67;;;24.10;52.70;;;;;;4300950;61;21076;-32
2021/08/30 07:46:43;;;;;;;42.25;24.58;;;24.10;52.70;;;;;;4315780;61;21057;-31
2021/08/30 07:51:44;;;;;;;59.08;39.97;;;24.10;52.70;;;;;;4297904;61;21089;-31
2021/08/30 07:56:45;;;;;;;62.38;38.42;;;24.10;50.40;;;;;;4334758;61;21123;-30
2021/08/30 08:01:46;;;;;;;57.85;38.45;;;24.00;50.20;;;;;;4295363;65;21106;-30
2021/08/30 08:06:47;;;;;;;96.63;68.03;;;23.80;50.20;;;;;;4296807;61;21116;-29
2021/08/30 08:11:48;;;;;;;122.85;89.40;;;23.90;50.40;;;;;;4325776;61;21527;-31
2021/08/30 08:16:50;;;;;;;110.90;81.87;;;23.90;50.40;;;;;;4297633;61;21949;-32
2021/08/30 08:21:51;;;;;;;106.12;80.25;;;23.90;50.80;;;;;;4295444;65;21126;-31
2021/08/30 08:26:52;;;;;;;104.50;78.97;;;23.90;51.10;;;;;;4299483;61;21057;-27
2021/08/30 08:31:53;;;;;;;101.80;77.45;;;24.00;51.30;;;;;;4308548;61;21168;-32
2021/08/30 08:37:12;;;;;;;91.57;71.65;;;24.00;51.40;;;;;;4299696;61;21638;-28
2021/08/30 08:42:13;;;;;;;97.88;73.70;;;24.10;51.70;;;;;;4303670;61;21072;-32
2021/08/30 08:47:17;;;;;;;93.15;70.35;;;24.10;51.70;;;;;;4295366;65;21184;-33
2021/08/30 08:52:22;;;;;;;86.55;66.15;;;24.10;51.90;;;;;;4309495;60;21097;-28
2021/08/30 08:57:23;;;;;;;79.82;58.78;;;24.10;51.70;;;;;;4313208;60;21130;-29
2021/08/30 09:02:31;;;;;;;77.50;57.22;;;24.10;50.80;;;;;;4295772;65;21137;-33
2021/08/30 09:07:40;;;;;;;69.65;53.08;;;24.00;50.60;;;;;;4333069;60;21056;-32
2021/08/30 09:12:42;;;;;;;72.45;54.80;;;24.00;50.80;;;;;;4302221;60;21632;-30
2021/08/30 09:17:51;;;;;;;75.25;56.92;;;24.00;50.90;;;;;;4339254;60;21631;-34
2021/08/30 09:22:52;;;;;;;70.43;51.95;;;24.00;50.90;;;;;;4298138;60;22455;-26
2021/08/30 09:27:55;;;;;;;72.37;52.00;;;24.00;51.00;;;;;;4307698;60;21080;-32
2021/08/30 09:32:56;;;;;;;75.68;52.70;;;24.00;51.10;;;;;;4313267;60;21089;-32
2021/08/30 09:37:57;;;;;;;69.80;49.97;;;24.00;51.10;;;;;;4307316;61;21203;-34
2021/08/30 09:42:58;;;;;;;61.65;44.05;;;24.00;51.20;;;;;;4309843;60;21133;-32
2021/08/30 09:48:04;;;;;;;53.08;37.92;;;24.00;51.10;;;;;;4310114;61;21085;-33
2021/08/30 09:53:06;;;;;;;47.97;36.70;;;24.00;50.80;;;;;;4327410;60;21625;-32
2021/08/30 09:58:08;;;;;;;49.13;36.50;;;24.00;50.70;;;;;;4328217;61;21118;-29
2021/08/30 10:03:10;;;;;;;47.67;35.83;;;24.00;50.50;;;;;;4325021;60;21536;-34
2021/08/30 10:08:15;;;;;;;45.88;32.35;;;24.00;50.10;;;;;;4301993;60;21117;-35
2021/08/30 10:13:18;;;;;;;39.75;29.27;;;24.00;49.50;;;;;;4302631;61;21611;-36
2021/08/30 10:18:20;;;;;;;52.42;43.63;;;24.00;49.50;;;;;;4314024;60;21132;-32
2021/08/30 10:23:22;;;;;;;58.67;46.15;;;24.00;48.80;;;;;;4324288;60;21122;-27
2021/08/30 10:28:37;;;;;;;60.95;47.97;;;24.00;49.20;;;;;;4296067;60;21555;-32
2021/08/30 10:33:39;;;;;;;64.57;46.42;;;24.00;49.10;;;;;;4303935;60;21096;-31
2021/08/30 10:38:40;;;;;;;66.85;49.85;;;23.90;49.10;;;;;;4312155;60;21112;-29
2021/08/30 10:43:45;;;;;;;69.55;51.95;;;24.00;49.80;;;;;;4317536;60;21191;-32
2021/08/30 10:48:50;;;;;;;63.90;47.35;;;24.00;49.00;;;;;;4328678;61;21538;-32
2021/08/30 10:53:56;;;;;;;47.53;36.58;;;24.00;48.30;;;;;;4305533;60;22058;-34
2021/08/30 10:59:03;;;;;;;50.80;34.08;;;23.90;47.00;;;;;;4297356;61;21077;-36
2021/08/30 11:04:06;;;;;;;45.28;33.10;;;23.90;46.90;;;;;;4303753;60;21530;-32
2021/08/30 11:09:16;;;;;;;42.08;31.23;;;23.90;47.40;;;;;;4306847;60;21589;-30
2021/08/30 11:14:18;;;;;;;41.03;29.33;;;23.90;46.60;;;;;;4321275;60;21251;-31
2021/08/30 11:19:19;;;;;;;35.28;27.20;;;23.90;46.70;;;;;;4295489;61;22063;-32
2021/08/30 11:24:43;;;;;;;36.17;26.05;;;24.00;46.50;;;;;;4324566;60;21118;-31
2021/08/30 11:29:46;;;;;;;40.35;29.37;;;24.00;46.60;;;;;;4328651;60;22337;-33
2021/08/30 11:34:48;;;;;;;48.45;35.67;;;24.00;46.80;;;;;;4306029;60;21578;-31
2021/08/30 11:39:50;;;;;;;47.85;34.65;;;24.00;47.00;;;;;;4306132;60;21148;-31
2021/08/30 11:44:53;;;;;;;50.58;37.33;;;24.00;47.00;;;;;;4305498;61;21169;-32
2021/08/30 11:49:57;;;;;;;51.10;38.78;;;24.10;47.20;;;;;;4309318;60;21057;-32
2021/08/30 11:55:04;;;;;;;50.67;33.10;;;24.10;47.10;;;;;;4333167;61;21140;-34
2021/08/30 12:00:05;;;;;;;;;;;24.10;47.10;;;;;;4315051;60;21406;-33
2021/08/30 12:05:08;;;;;;;46.97;31.85;;;24.10;46.60;;;;;;4311033;61;20424;-34
2021/08/30 12:10:12;;;;;;;43.92;31.48;;;24.10;46.70;;;;;;4310583;60;21351;-35
2021/08/30 12:15:18;;;;;;;42.05;31.48;;;24.10;46.80;;;;;;4312529;60;21162;-34
2021/08/30 12:20:26;;;;;;;38.10;30.23;;;24.10;46.90;;;;;;4309833;60;21177;-32
2021/08/30 12:25:29;;;;;;;41.42;31.20;;;24.10;47.00;;;;;;4298075;60;21072;-32
2021/08/30 12:30:33;;;;;;;37.03;30.37;;;24.10;47.10;;;;;;4300926;60;21081;-34
2021/08/30 12:35:43;;;;;;;39.83;30.17;;;24.10;47.20;;;;;;4295671;60;21210;-33
2021/08/30 12:40:55;;;;;;;42.05;33.35;;;24.10;47.00;;;;;;4300449;60;21037;-30
2021/08/30 12:45:57;;;;;;;43.28;30.62;;;24.10;46.70;;;;;;4297496;60;21061;-30
2021/08/30 12:50:58;;;;;;;51.20;32.05;;;24.20;46.40;;;;;;4300018;61;21542;-30
2021/08/30 12:55:59;;;;;;;47.47;33.33;;;24.10;46.00;;;;;;4295845;64;21045;-32
2021/08/30 13:01:01;;;;;;;50.53;36.33;;;24.10;45.80;;;;;;4297669;60;21166;-32
2021/08/30 13:06:01;;;;;;;52.55;36.95;;;24.20;45.80;;;;;;4305669;60;21627;-31
2021/08/30 13:11:02;;;;;;;49.67;38.45;;;24.20;45.80;;;;;;4294163;65;21092;-31
2021/08/30 13:16:04;;;;;;;47.67;35.88;;;24.20;45.70;;;;;;4295491;61;21069;-32
2021/08/30 13:21:04;;;;;;;47.92;35.08;;;24.20;45.70;;;;;;4305637;60;21088;-34
2021/08/30 13:26:07;;;;;;;42.30;34.47;;;24.20;45.80;;;;;;4295262;65;21053;-33
2021/08/30 13:31:08;;;;;;;42.28;31.65;;;24.20;46.00;;;;;;4298892;61;21190;-34
2021/08/30 13:36:09;;;;;;;42.78;33.08;;;24.20;46.20;;;;;;4297603;61;21642;-33
2021/08/30 13:41:10;;;;;;;42.85;32.90;;;24.20;46.50;;;;;;4301696;61;21145;-30
2021/08/30 13:46:11;;;;;;;44.33;31.83;;;24.20;46.70;;;;;;4295008;65;21148;-34
2021/08/30 13:51:13;;;;;;;45.10;31.30;;;24.30;46.80;;;;;;4327731;61;21053;-34
2021/08/30 13:56:13;;;;;;;40.30;30.83;;;24.30;47.00;;;;;;4348547;61;21505;-34
2021/08/30 14:01:15;;;;;;;39.42;30.92;;;24.30;47.20;;;;;;4300685;61;21125;-32
2021/08/30 14:06:16;;;;;;;40.22;31.17;;;24.30;47.30;;;;;;4300285;61;21591;-34
2021/08/30 14:11:16;;;;;;;43.30;29.92;;;24.30;47.30;;;;;;4311459;61;21118;-34
2021/08/30 14:16:17;;;;;;;39.38;30.42;;;24.30;48.20;;;;;;4298104;61;21579;-33
2021/08/30 14:21:18;;;;;;;39.13;29.92;;;24.30;47.70;;;;;;4310716;61;21595;-31
2021/08/30 14:26:19;;;;;;;40.85;30.20;;;24.30;47.90;;;;;;4313376;61;21105;-32
2021/08/30 14:31:20;;;;;;;34.65;27.95;;;24.30;48.10;;;;;;4296063;60;21080;-33
2021/08/30 14:36:21;;;;;;;38.95;29.30;;;24.40;48.30;;;;;;4299266;61;21182;-33
2021/08/30 14:41:22;;;;;;;37.08;29.33;;;24.30;48.30;;;;;;4310989;60;21442;-32
2021/08/30 14:46:23;;;;;;;34.75;28.42;;;24.40;48.50;;;;;;4316831;61;21076;-33
2021/08/30 14:51:24;;;;;;;37.95;27.70;;;24.40;48.70;;;;;;4296898;61;21092;-30
2021/08/30 14:56:25;;;;;;;36.47;28.10;;;24.40;48.80;;;;;;4299583;61;21515;-34
2021/08/30 15:01:26;;;;;;;35.15;27.70;;;24.40;48.90;;;;;;4304289;61;21543;-33
2021/08/30 15:06:27;;;;;;;35.15;28.10;;;24.40;48.90;;;;;;4351786;61;21048;-35
2021/08/30 15:11:28;;;;;;;35.03;27.20;;;24.30;49.00;;;;;;4321595;61;21150;-30
2021/08/30 15:16:29;;;;;;;35.65;27.85;;;24.30;49.10;;;;;;4295247;65;21133;-35
2021/08/30 15:21:30;;;;;;;33.97;27.52;;;24.30;49.20;;;;;;4300408;61;21073;-30
2021/08/30 15:26:31;;;;;;;35.85;27.67;;;24.30;49.30;;;;;;4336189;61;21166;-33
2021/08/30 15:31:32;;;;;;;34.92;27.40;;;24.20;49.30;;;;;;4300770;60;21118;-34
2021/08/30 15:36:34;;;;;;;32.95;27.58;;;24.20;49.30;;;;;;4297763;61;21155;-34
2021/08/30 15:41:35;;;;;;;31.45;25.80;;;24.20;49.30;;;;;;4300592;60;21056;-34
2021/08/30 15:46:36;;;;;;;33.40;27.15;;;24.20;49.40;;;;;;4312372;60;21208;-35
2021/08/30 15:51:37;;;;;;;33.25;27.05;;;24.20;49.40;;;;;;4328992;61;21076;-36
2021/08/30 15:56:38;;;;;;;33.55;26.83;;;24.10;49.40;;;;;;4295323;65;21133;-31
2021/08/30 16:01:38;;;;;;;29.55;24.80;;;24.10;49.50;;;;;;4295109;65;21068;-33
2021/08/30 16:06:39;;;;;;;34.13;26.65;;;24.10;49.50;;;;;;4302064;61;21084;-33
2021/08/30 16:11:40;;;;;;;29.67;25.52;;;24.10;49.50;;;;;;4314747;61;21671;-32
2021/08/30 16:16:41;;;;;;;30.33;25.40;;;24.10;50.20;;;;;;4317156;61;21110;-34
2021/08/30 16:21:42;;;;;;;32.10;25.42;;;24.10;49.50;;;;;;4311095;60;21614;-34
2021/08/30 16:26:43;;;;;;;30.08;25.15;;;24.10;49.60;;;;;;4295993;65;21523;-31
2021/08/30 16:31:44;;;;;;;33.22;25.98;;;24.10;49.70;;;;;;4299143;61;21077;-33
2021/08/30 16:36:45;;;;;;;31.08;25.17;;;24.10;49.60;;;;;;4295000;61;21088;-34
2021/08/30 16:41:46;;;;;;;28.80;24.37;;;24.10;49.60;;;;;;4323333;61;21547;-34
2021/08/30 16:46:47;;;;;;;28.02;24.10;;;24.10;49.70;;;;;;4303370;61;21057;-34
2021/08/30 16:51:48;;;;;;;28.73;24.52;;;24.10;49.70;;;;;;4312027;60;21048;-37
2021/08/30 16:56:49;;;;;;;30.23;24.42;;;24.00;49.60;;;;;;4302664;61;21098;-34
2021/08/30 17:01:50;;;;;;;30.83;25.10;;;24.00;49.70;;;;;;4301316;61;21535;-31
2021/08/30 17:06:52;;;;;;;28.50;23.75;;;24.00;49.70;;;;;;4314018;61;21073;-34
2021/08/30 17:11:54;;;;;;;28.58;23.85;;;24.00;49.70;;;;;;4296563;65;21619;-34
2021/08/30 17:16:55;;;;;;;27.60;23.50;;;24.00;49.70;;;;;;4295203;65;21142;-33
2021/08/30 17:21:56;;;;;;;29.65;23.17;;;24.00;49.70;;;;;;4322309;61;21535;-34
2021/08/30 17:26:57;;;;;;;28.87;23.77;;;24.00;49.80;;;;;;4303722;61;21113;-34
2021/08/30 17:32:01;;;;;;;29.20;23.45;;;24.00;49.80;;;;;;4296178;61;21097;-33
2021/08/30 17:37:02;;;;;;;29.55;23.23;;;24.00;49.80;;;;;;4294972;65;21180;-32
2021/08/30 17:42:04;;;;;;;26.17;21.73;;;24.00;49.80;;;;;;4298245;60;21057;-32
2021/08/30 17:47:05;;;;;;;27.67;23.10;;;24.00;49.90;;;;;;4309358;60;21076;-33
2021/08/30 17:52:06;;;;;;;26.90;22.67;;;24.00;49.90;;;;;;4296078;61;21056;-34
2021/08/30 17:57:07;;;;;;;27.02;22.73;;;24.00;49.90;;;;;;4316589;61;21547;-33
2021/08/30 18:02:08;;;;;;;27.83;22.58;;;24.00;50.00;;;;;;4296932;61;21057;-32
2021/08/30 18:07:09;;;;;;;26.60;21.98;;;24.00;49.90;;;;;;4297999;61;21073;-33
2021/08/30 18:12:10;;;;;;;27.62;22.25;;;24.00;50.00;;;;;;4295993;65;21526;-33
2021/08/30 18:17:11;;;;;;;25.65;21.50;;;24.00;50.00;;;;;;4296776;61;21118;-33
2021/08/30 18:22:12;;;;;;;26.50;22.25;;;24.00;50.00;;;;;;4331045;61;21559;-34
2021/08/30 18:27:13;;;;;;;28.12;22.10;;;24.00;50.10;;;;;;4303590;61;21137;-29
2021/08/30 18:32:14;;;;;;;25.73;21.55;;;24.00;50.10;;;;;;4307324;61;22243;-33
2021/08/30 18:37:15;;;;;;;26.70;21.37;;;24.00;50.20;;;;;;4297670;61;21097;-33
2021/08/30 18:42:16;;;;;;;25.75;22.40;;;24.00;50.10;;;;;;4319022;60;21515;-31
2021/08/30 18:47:16;;;;;;;25.50;20.62;;;24.00;50.20;;;;;;4319548;61;21113;-34
2021/08/30 18:52:17;;;;;;;25.62;20.27;;;24.00;50.20;;;;;;4299487;61;21075;-31
2021/08/30 18:57:18;;;;;;;24.23;20.88;;;23.90;50.20;;;;;;4295007;65;21547;-31
2021/08/30 19:02:19;;;;;;;23.27;20.05;;;24.00;50.30;;;;;;4300477;61;21118;-31
2021/08/30 19:07:20;;;;;;;25.27;19.52;;;23.90;50.30;;;;;;4296771;61;21092;-34
2021/08/30 19:12:21;;;;;;;26.08;21.30;;;23.90;50.30;;;;;;4338470;61;21056;-29
2021/08/30 19:17:22;;;;;;;23.55;20.62;;;23.90;50.30;;;;;;4319993;61;21543;-33
2021/08/30 19:22:23;;;;;;;23.60;20.02;;;23.90;50.40;;;;;;4295804;65;21077;-33
2021/08/30 19:27:24;;;;;;;21.60;18.50;;;23.90;50.40;;;;;;4345053;60;21162;-29
2021/08/30 19:32:26;;;;;;;23.58;19.10;;;23.90;50.40;;;;;;4311857;61;21577;-34
2021/08/30 19:37:30;;;;;;;22.10;18.17;;;23.90;50.40;;;;;;4299421;61;21634;-30
2021/08/30 19:42:31;;;;;;;23.70;19.73;;;23.90;50.50;;;;;;4331617;61;21152;-34
2021/08/30 19:47:32;;;;;;;23.12;19.23;;;23.90;50.50;;;;;;4295501;65;21097;-33
2021/08/30 19:52:35;;;;;;;24.33;19.27;;;23.90;50.50;;;;;;4307762;60;21061;-34
2021/08/30 19:57:36;;;;;;;22.67;18.73;;;23.90;50.50;;;;;;4318104;60;21546;-30
2021/08/30 20:02:36;;;;;;;23.73;19.48;;;23.90;50.50;;;;;;4317240;61;21065;-35
2021/08/30 20:07:41;;;;;;;22.52;18.40;;;23.90;50.60;;;;;;4316844;61;21105;-33
2021/08/30 20:12:42;;;;;;;21.83;18.62;;;23.90;50.50;;;;;;4309087;60;21080;-33
2021/08/30 20:17:43;;;;;;;22.65;18.40;;;23.90;50.60;;;;;;4347323;61;21531;-32
2021/08/30 20:22:44;;;;;;;21.92;17.73;;;23.90;50.50;;;;;;4296891;61;21069;-32
2021/08/30 20:27:46;;;;;;;22.17;18.75;;;23.90;50.60;;;;;;4295883;61;21554;-33
2021/08/30 20:32:47;;;;;;;22.98;18.60;;;23.90;50.60;;;;;;4326980;61;21547;-35
2021/08/30 20:37:53;;;;;;;20.23;17.90;;;23.90;50.60;;;;;;4296175;61;21533;-32
2021/08/30 20:42:55;;;;;;;21.60;18.53;;;23.90;50.60;;;;;;4307515;61;21056;-33
2021/08/30 20:47:56;;;;;;;20.73;16.87;;;23.90;50.60;;;;;;4337442;61;21068;-35
2021/08/30 20:52:58;;;;;;;21.48;16.75;;;23.90;50.60;;;;;;4309972;61;21080;-31
2021/08/30 20:57:59;;;;;;;22.92;18.35;;;23.90;50.80;;;;;;4334121;60;21531;-30
2021/08/30 21:03:00;;;;;;;19.23;16.75;;;23.90;50.60;;;;;;4314616;61;21109;-32
2021/08/30 21:08:01;;;;;;;25.52;16.65;;;23.90;50.60;;;;;;4302479;60;21099;-34
2021/08/30 21:13:02;;;;;;;21.90;16.98;;;23.90;50.60;;;;;;4319441;61;21580;-30
2021/08/30 21:18:03;;;;;;;20.37;16.73;;;23.90;50.60;;;;;;4314358;61;21554;-33
2021/08/30 21:23:05;;;;;;;19.98;16.35;;;23.90;50.60;;;;;;4304077;61;21171;-35
2021/08/30 21:28:05;;;;;;;19.23;16.25;;;23.90;50.60;;;;;;4300471;60;21057;-28
2021/08/30 21:33:06;;;;;;;19.50;15.95;;;23.90;50.60;;;;;;4304865;61;21141;-27
2021/08/30 21:38:07;;;;;;;19.25;16.05;;;23.90;50.70;;;;;;4303577;61;21141;-35
2021/08/30 21:43:08;;;;;;;17.70;15.77;;;23.90;50.60;;;;;;4309190;61;21084;-31
2021/08/30 21:48:09;;;;;;;19.85;16.30;;;23.90;50.70;;;;;;4340370;61;21085;-31
2021/08/30 21:53:09;;;;;;;17.52;15.30;;;23.90;50.60;;;;;;4322362;61;21085;-31
2021/08/30 21:58:10;;;;;;;19.25;15.57;;;23.90;50.60;;;;;;4302284;61;21048;-35
2021/08/30 22:03:11;;;;;;;18.87;15.98;;;23.90;50.10;;;;;;4305660;61;21723;-32
2021/08/30 22:08:12;;;;;;;18.58;15.52;;;23.90;50.60;;;;;;4296193;65;21173;-36
2021/08/30 22:13:13;;;;;;;19.17;15.32;;;23.80;50.60;;;;;;4324178;60;21274;-32
2021/08/30 22:18:14;;;;;;;19.42;15.43;;;23.90;50.60;;;;;;4340382;61;21069;-32
2021/08/30 22:23:15;;;;;;;18.05;15.18;;;23.90;50.60;;;;;;4304128;60;21428;-32
2021/08/30 22:28:16;;;;;;;17.05;14.68;;;23.90;51.20;;;;;;4303970;61;21057;-34
2021/08/30 22:33:17;;;;;;;17.37;14.82;;;23.90;50.60;;;;;;4295415;65;21559;-33
2021/08/30 22:38:18;;;;;;;16.10;14.40;;;23.90;50.60;;;;;;4306293;61;21206;-34
2021/08/30 22:43:19;;;;;;;17.45;14.60;;;23.90;50.60;;;;;;4297363;61;21567;-33
2021/08/30 22:48:19;;;;;;;17.17;13.90;;;23.90;51.10;;;;;;4308112;61;21053;-34
2021/08/30 22:53:20;;;;;;;17.02;14.18;;;23.80;50.60;;;;;;4296793;61;21134;-35
2021/08/30 22:58:21;;;;;;;17.80;14.55;;;23.80;50.60;;;;;;4312659;61;21082;-33
2021/08/30 23:03:22;;;;;;;20.50;15.43;;;23.90;50.70;;;;;;4304133;61;21133;-31
2021/08/30 23:08:23;;;;;;;19.40;14.00;;;23.90;50.70;;;;;;4298026;61;21061;-31
2021/08/30 23:13:23;;;;;;;15.80;13.55;;;23.80;50.60;;;;;;4306813;61;21081;-33
2021/08/30 23:18:24;;;;;;;16.83;13.62;;;23.80;50.60;;;;;;4296874;61;21671;-33
2021/08/30 23:23:25;;;;;;;13.88;12.37;;;23.90;50.60;;;;;;4298653;61;21077;-30
2021/08/30 23:28:26;;;;;;;17.02;13.38;;;23.90;50.70;;;;;;4320172;61;21087;-32
2021/08/30 23:33:26;;;;;;;17.15;13.15;;;23.80;50.60;;;;;;4306660;61;21160;-33
2021/08/30 23:38:27;;;;;;;15.82;12.93;;;23.80;50.60;;;;;;4299885;61;21165;-30
2021/08/30 23:43:28;;;;;;;14.68;13.05;;;23.90;50.70;;;;;;4314702;61;22059;-34
2021/08/30 23:48:29;;;;;;;15.43;12.82;;;23.80;50.60;;;;;;4309330;61;21076;-33
2021/08/30 23:53:30;;;;;;;14.57;12.98;;;23.80;50.60;;;;;;4321705;61;21887;-30
2021/08/30 23:58:30;;;;;;;14.38;12.60;;;23.80;50.60;;;;;;4296076;65;21136;-31
